sensor_id;sensor_type;location;lat;lon;timestamp;P1;durP1;ratioP1;P2;durP2;ratioP2
60908;SDS011;46780;48.128;-1.704;2023-01-10T00:00:18;20.60;;;4.18;;
60908;SDS011;46780;48.128;-1.704;2023-01-10T00:02:45;20.85;;;4.10;;
60908;SDS011;46780;48.128;-1.704;2023-01-10T00:05:13;22.48;;;4.50;;
60908;SDS011;46780;48.128;-1.704;2023-01-10T00:07:39;17.45;;;3.70;;
60908;SDS011;46780;48.128;-1.704;2023-01-10T00:10:06;18.10;;;3.20;;
60908;SDS011;46780;48.128;-1.704;2023-01-10T00:12:33;15.80;;;3.60;;
60908;SDS011;46780;48.128;-1.704;2023-01-10T00:14:59;18.83;;;3.80;;
60908;SDS011;46780;48.128;-1.704;2023-01-10T00:17:26;23.33;;;4.40;;
60908;SDS011;46780;48.128;-1.704;2023-01-10T00:19:52;17.92;;;4.03;;
60908;SDS011;46780;48.128;-1.704;2023-01-10T00:22:20;20.60;;;4.40;;
60908;SDS011;46780;48.128;-1.704;2023-01-10T00:24:46;22.77;;;3.92;;
60908;SDS011;46780;48.128;-1.704;2023-01-10T00:27:13;24.83;;;3.88;;
60908;SDS011;46780;48.128;-1.704;2023-01-10T00:29:39;21.85;;;3.85;;
60908;SDS011;46780;48.128;-1.704;2023-01-10T00:32:06;20.48;;;3.60;;
60908;SDS011;46780;48.128;-1.704;2023-01-10T00:34:32;22.15;;;4.10;;
60908;SDS011;46780;48.128;-1.704;2023-01-10T00:36:59;18.08;;;3.45;;
60908;SDS011;46780;48.128;-1.704;2023-01-10T00:39:26;22.58;;;4.07;;
60908;SDS011;46780;48.128;-1.704;2023-01-10T00:41:53;21.25;;;4.00;;
60908;SDS011;46780;48.128;-1.704;2023-01-10T00:44:19;20.42;;;3.85;;
60908;SDS011;46780;48.128;-1.704;2023-01-10T00:46:46;18.55;;;3.50;;
60908;SDS011;46780;48.128;-1.704;2023-01-10T00:49:12;22.50;;;4.07;;
60908;SDS011;46780;48.128;-1.704;2023-01-10T00:51:39;26.10;;;4.00;;
60908;SDS011;46780;48.128;-1.704;2023-01-10T00:54:05;19.38;;;3.60;;
60908;SDS011;46780;48.128;-1.704;2023-01-10T00:56:35;21.85;;;3.80;;
60908;SDS011;46780;48.128;-1.704;2023-01-10T00:59:01;30.17;;;3.88;;
60908;SDS011;46780;48.128;-1.704;2023-01-10T01:01:28;24.13;;;4.47;;
60908;SDS011;46780;48.128;-1.704;2023-01-10T01:03:54;20.20;;;3.78;;
60908;SDS011;46780;48.128;-1.704;2023-01-10T01:06:20;21.50;;;3.78;;
60908;SDS011;46780;48.128;-1.704;2023-01-10T01:08:47;21.73;;;3.67;;
60908;SDS011;46780;48.128;-1.704;2023-01-10T01:11:14;24.45;;;3.83;;
60908;SDS011;46780;48.128;-1.704;2023-01-10T01:13:41;21.75;;;3.78;;
60908;SDS011;46780;48.128;-1.704;2023-01-10T01:16:08;16.92;;;3.40;;
60908;SDS011;46780;48.128;-1.704;2023-01-10T01:18:34;22.05;;;3.45;;
60908;SDS011;46780;48.128;-1.704;2023-01-10T01:21:01;19.80;;;3.70;;
60908;SDS011;46780;48.128;-1.704;2023-01-10T01:23:27;16.13;;;3.95;;
60908;SDS011;46780;48.128;-1.704;2023-01-10T01:25:54;20.83;;;3.45;;
60908;SDS011;46780;48.128;-1.704;2023-01-10T01:28:22;21.05;;;3.80;;
60908;SDS011;46780;48.128;-1.704;2023-01-10T01:30:50;22.20;;;3.88;;
60908;SDS011;46780;48.128;-1.704;2023-01-10T01:33:17;21.15;;;3.63;;
60908;SDS011;46780;48.128;-1.704;2023-01-10T01:35:44;21.70;;;4.20;;
60908;SDS011;46780;48.128;-1.704;2023-01-10T01:38:12;20.70;;;4.13;;
60908;SDS011;46780;48.128;-1.704;2023-01-10T01:40:38;21.38;;;4.43;;
60908;SDS011;46780;48.128;-1.704;2023-01-10T01:43:08;19.58;;;4.13;;
60908;SDS011;46780;48.128;-1.704;2023-01-10T01:45:47;19.17;;;3.78;;
60908;SDS011;46780;48.128;-1.704;2023-01-10T01:48:20;22.27;;;3.83;;
60908;SDS011;46780;48.128;-1.704;2023-01-10T01:50:52;25.02;;;4.25;;
60908;SDS011;46780;48.128;-1.704;2023-01-10T01:53:22;20.83;;;4.07;;
60908;SDS011;46780;48.128;-1.704;2023-01-10T01:55:51;21.90;;;3.97;;
60908;SDS011;46780;48.128;-1.704;2023-01-10T01:58:26;19.88;;;3.72;;
60908;SDS011;46780;48.128;-1.704;2023-01-10T02:00:57;24.73;;;4.03;;
60908;SDS011;46780;48.128;-1.704;2023-01-10T02:03:24;18.00;;;3.70;;
60908;SDS011;46780;48.128;-1.704;2023-01-10T02:05:52;20.33;;;4.25;;
60908;SDS011;46780;48.128;-1.704;2023-01-10T02:08:18;19.45;;;3.80;;
60908;SDS011;46780;48.128;-1.704;2023-01-10T02:10:47;20.83;;;3.90;;
60908;SDS011;46780;48.128;-1.704;2023-01-10T02:13:18;19.88;;;3.65;;
60908;SDS011;46780;48.128;-1.704;2023-01-10T02:15:48;23.85;;;4.38;;
60908;SDS011;46780;48.128;-1.704;2023-01-10T02:18:16;20.42;;;4.05;;
60908;SDS011;46780;48.128;-1.704;2023-01-10T02:20:49;19.00;;;3.45;;
60908;SDS011;46780;48.128;-1.704;2023-01-10T02:27:17;21.15;;;3.72;;
60908;SDS011;46780;48.128;-1.704;2023-01-10T02:32:50;23.90;;;3.90;;
60908;SDS011;46780;48.128;-1.704;2023-01-10T02:35:27;24.30;;;4.20;;
60908;SDS011;46780;48.128;-1.704;2023-01-10T02:38:03;26.10;;;3.80;;
60908;SDS011;46780;48.128;-1.704;2023-01-10T02:40:43;25.77;;;4.13;;
60908;SDS011;46780;48.128;-1.704;2023-01-10T02:43:18;23.92;;;4.13;;
60908;SDS011;46780;48.128;-1.704;2023-01-10T02:45:50;22.67;;;4.05;;
60908;SDS011;46780;48.128;-1.704;2023-01-10T02:48:22;23.10;;;3.72;;
60908;SDS011;46780;48.128;-1.704;2023-01-10T02:50:51;20.08;;;3.80;;
60908;SDS011;46780;48.128;-1.704;2023-01-10T02:53:22;20.55;;;4.05;;
60908;SDS011;46780;48.128;-1.704;2023-01-10T02:56:04;23.92;;;3.78;;
60908;SDS011;46780;48.128;-1.704;2023-01-10T02:58:56;24.20;;;4.18;;
60908;SDS011;46780;48.128;-1.704;2023-01-10T03:01:32;28.13;;;4.30;;
60908;SDS011;46780;48.128;-1.704;2023-01-10T03:04:11;24.63;;;4.10;;
60908;SDS011;46780;48.128;-1.704;2023-01-10T03:06:48;22.08;;;3.50;;
60908;SDS011;46780;48.128;-1.704;2023-01-10T03:09:20;19.55;;;3.45;;
60908;SDS011;46780;48.128;-1.704;2023-01-10T03:11:53;20.77;;;3.58;;
60908;SDS011;46780;48.128;-1.704;2023-01-10T03:14:30;21.88;;;4.05;;
60908;SDS011;46780;48.128;-1.704;2023-01-10T03:17:01;28.40;;;4.25;;
60908;SDS011;46780;48.128;-1.704;2023-01-10T03:19:34;20.67;;;3.63;;
60908;SDS011;46780;48.128;-1.704;2023-01-10T03:22:05;24.10;;;3.88;;
60908;SDS011;46780;48.128;-1.704;2023-01-10T03:24:34;22.65;;;4.00;;
60908;SDS011;46780;48.128;-1.704;2023-01-10T03:27:05;25.98;;;4.03;;
60908;SDS011;46780;48.128;-1.704;2023-01-10T03:29:39;28.08;;;3.88;;
60908;SDS011;46780;48.128;-1.704;2023-01-10T03:32:10;28.17;;;3.70;;
60908;SDS011;46780;48.128;-1.704;2023-01-10T03:34:41;25.23;;;4.07;;
60908;SDS011;46780;48.128;-1.704;2023-01-10T03:37:09;23.95;;;4.20;;
60908;SDS011;46780;48.128;-1.704;2023-01-10T03:39:43;24.92;;;4.07;;
60908;SDS011;46780;48.128;-1.704;2023-01-10T03:42:19;25.33;;;4.20;;
60908;SDS011;46780;48.128;-1.704;2023-01-10T03:44:52;23.02;;;4.25;;
60908;SDS011;46780;48.128;-1.704;2023-01-10T03:47:27;28.40;;;4.30;;
60908;SDS011;46780;48.128;-1.704;2023-01-10T03:50:00;28.70;;;4.15;;
60908;SDS011;46780;48.128;-1.704;2023-01-10T03:52:31;24.30;;;3.85;;
60908;SDS011;46780;48.128;-1.704;2023-01-10T03:54:59;22.92;;;3.58;;
60908;SDS011;46780;48.128;-1.704;2023-01-10T03:57:25;21.77;;;3.88;;
60908;SDS011;46780;48.128;-1.704;2023-01-10T03:59:53;23.95;;;4.18;;
60908;SDS011;46780;48.128;-1.704;2023-01-10T04:02:20;20.23;;;3.78;;
60908;SDS011;46780;48.128;-1.704;2023-01-10T04:04:47;33.70;;;4.20;;
60908;SDS011;46780;48.128;-1.704;2023-01-10T04:07:15;23.63;;;3.95;;
60908;SDS011;46780;48.128;-1.704;2023-01-10T04:09:41;25.52;;;3.92;;
60908;SDS011;46780;48.128;-1.704;2023-01-10T04:12:08;21.83;;;3.45;;
60908;SDS011;46780;48.128;-1.704;2023-01-10T04:14:34;26.52;;;3.83;;
60908;SDS011;46780;48.128;-1.704;2023-01-10T04:17:00;24.92;;;4.35;;
60908;SDS011;46780;48.128;-1.704;2023-01-10T04:19:27;25.35;;;4.60;;
60908;SDS011;46780;48.128;-1.704;2023-01-10T04:21:53;20.02;;;3.70;;
60908;SDS011;46780;48.128;-1.704;2023-01-10T04:24:21;26.95;;;3.90;;
60908;SDS011;46780;48.128;-1.704;2023-01-10T04:26:48;24.33;;;3.72;;
60908;SDS011;46780;48.128;-1.704;2023-01-10T04:29:14;28.45;;;3.70;;
60908;SDS011;46780;48.128;-1.704;2023-01-10T04:31:41;26.48;;;3.80;;
60908;SDS011;46780;48.128;-1.704;2023-01-10T04:34:08;21.90;;;3.72;;
60908;SDS011;46780;48.128;-1.704;2023-01-10T04:36:34;22.08;;;3.97;;
60908;SDS011;46780;48.128;-1.704;2023-01-10T04:39:01;22.70;;;4.30;;
60908;SDS011;46780;48.128;-1.704;2023-01-10T04:41:29;24.33;;;4.00;;
60908;SDS011;46780;48.128;-1.704;2023-01-10T04:43:55;27.42;;;3.95;;
60908;SDS011;46780;48.128;-1.704;2023-01-10T04:46:22;26.92;;;4.13;;
60908;SDS011;46780;48.128;-1.704;2023-01-10T04:48:48;27.58;;;4.20;;
60908;SDS011;46780;48.128;-1.704;2023-01-10T04:51:15;29.85;;;4.00;;
60908;SDS011;46780;48.128;-1.704;2023-01-10T04:53:41;20.77;;;3.83;;
60908;SDS011;46780;48.128;-1.704;2023-01-10T04:56:08;23.80;;;3.63;;
60908;SDS011;46780;48.128;-1.704;2023-01-10T04:58:41;27.23;;;3.92;;
60908;SDS011;46780;48.128;-1.704;2023-01-10T05:01:07;21.83;;;3.95;;
60908;SDS011;46780;48.128;-1.704;2023-01-10T05:03:35;20.45;;;4.00;;
60908;SDS011;46780;48.128;-1.704;2023-01-10T05:06:01;28.60;;;4.47;;
60908;SDS011;46780;48.128;-1.704;2023-01-10T05:08:28;23.67;;;3.72;;
60908;SDS011;46780;48.128;-1.704;2023-01-10T05:10:54;25.77;;;3.90;;
60908;SDS011;46780;48.128;-1.704;2023-01-10T05:13:21;21.48;;;3.88;;
60908;SDS011;46780;48.128;-1.704;2023-01-10T05:15:49;22.75;;;3.72;;
60908;SDS011;46780;48.128;-1.704;2023-01-10T05:18:18;24.50;;;3.40;;
60908;SDS011;46780;48.128;-1.704;2023-01-10T05:20:44;24.10;;;3.90;;
60908;SDS011;46780;48.128;-1.704;2023-01-10T05:23:11;25.45;;;4.28;;
60908;SDS011;46780;48.128;-1.704;2023-01-10T05:25:37;19.52;;;3.38;;
60908;SDS011;46780;48.128;-1.704;2023-01-10T05:28:04;26.17;;;3.60;;
60908;SDS011;46780;48.128;-1.704;2023-01-10T05:30:30;21.48;;;3.45;;
60908;SDS011;46780;48.128;-1.704;2023-01-10T05:32:58;18.00;;;3.10;;
60908;SDS011;46780;48.128;-1.704;2023-01-10T05:35:24;19.80;;;2.72;;
60908;SDS011;46780;48.128;-1.704;2023-01-10T05:37:51;18.05;;;3.50;;
60908;SDS011;46780;48.128;-1.704;2023-01-10T05:40:18;19.42;;;2.85;;
60908;SDS011;46780;48.128;-1.704;2023-01-10T05:42:45;20.15;;;3.33;;
60908;SDS011;46780;48.128;-1.704;2023-01-10T05:45:11;19.10;;;3.05;;
60908;SDS011;46780;48.128;-1.704;2023-01-10T05:47:38;23.30;;;3.10;;
60908;SDS011;46780;48.128;-1.704;2023-01-10T05:50:06;22.15;;;2.90;;
60908;SDS011;46780;48.128;-1.704;2023-01-10T05:52:34;15.68;;;2.80;;
60908;SDS011;46780;48.128;-1.704;2023-01-10T05:55:00;17.98;;;3.55;;
60908;SDS011;46780;48.128;-1.704;2023-01-10T05:57:27;14.85;;;2.90;;
60908;SDS011;46780;48.128;-1.704;2023-01-10T05:59:54;19.58;;;2.90;;
60908;SDS011;46780;48.128;-1.704;2023-01-10T06:02:20;18.00;;;3.15;;
60908;SDS011;46780;48.128;-1.704;2023-01-10T06:04:47;17.10;;;3.30;;
60908;SDS011;46780;48.128;-1.704;2023-01-10T06:07:14;22.00;;;3.90;;
60908;SDS011;46780;48.128;-1.704;2023-01-10T06:09:41;17.88;;;3.30;;
60908;SDS011;46780;48.128;-1.704;2023-01-10T06:12:07;17.88;;;3.25;;
60908;SDS011;46780;48.128;-1.704;2023-01-10T06:14:34;17.48;;;3.70;;
60908;SDS011;46780;48.128;-1.704;2023-01-10T06:17:00;18.13;;;3.10;;
60908;SDS011;46780;48.128;-1.704;2023-01-10T06:19:27;15.90;;;3.53;;
60908;SDS011;46780;48.128;-1.704;2023-01-10T06:21:53;14.73;;;3.03;;
60908;SDS011;46780;48.128;-1.704;2023-01-10T06:24:21;11.40;;;2.95;;
60908;SDS011;46780;48.128;-1.704;2023-01-10T06:26:47;15.98;;;3.10;;
60908;SDS011;46780;48.128;-1.704;2023-01-10T06:29:14;16.33;;;3.13;;
60908;SDS011;46780;48.128;-1.704;2023-01-10T06:31:40;11.73;;;2.55;;
60908;SDS011;46780;48.128;-1.704;2023-01-10T06:34:07;12.65;;;2.70;;
60908;SDS011;46780;48.128;-1.704;2023-01-10T06:36:33;12.80;;;2.45;;
60908;SDS011;46780;48.128;-1.704;2023-01-10T06:39:00;15.38;;;2.78;;
60908;SDS011;46780;48.128;-1.704;2023-01-10T06:41:27;10.80;;;2.70;;
60908;SDS011;46780;48.128;-1.704;2023-01-10T06:43:54;12.80;;;2.78;;
60908;SDS011;46780;48.128;-1.704;2023-01-10T06:46:20;10.10;;;2.20;;
60908;SDS011;46780;48.128;-1.704;2023-01-10T06:48:47;11.88;;;2.55;;
60908;SDS011;46780;48.128;-1.704;2023-01-10T06:51:14;11.20;;;2.60;;
60908;SDS011;46780;48.128;-1.704;2023-01-10T06:53:42;10.75;;;2.17;;
60908;SDS011;46780;48.128;-1.704;2023-01-10T06:56:08;7.80;;;2.13;;
60908;SDS011;46780;48.128;-1.704;2023-01-10T06:58:36;8.15;;;2.15;;
60908;SDS011;46780;48.128;-1.704;2023-01-10T07:01:04;8.82;;;2.15;;
60908;SDS011;46780;48.128;-1.704;2023-01-10T07:03:31;6.60;;;1.80;;
60908;SDS011;46780;48.128;-1.704;2023-01-10T07:05:59;6.15;;;1.95;;
60908;SDS011;46780;48.128;-1.704;2023-01-10T07:08:26;6.18;;;2.05;;
60908;SDS011;46780;48.128;-1.704;2023-01-10T07:10:52;6.70;;;1.90;;
60908;SDS011;46780;48.128;-1.704;2023-01-10T07:13:22;9.20;;;2.00;;
60908;SDS011;46780;48.128;-1.704;2023-01-10T07:15:50;5.45;;;1.95;;
60908;SDS011;46780;48.128;-1.704;2023-01-10T07:18:16;6.80;;;1.80;;
60908;SDS011;46780;48.128;-1.704;2023-01-10T07:20:43;8.27;;;2.00;;
60908;SDS011;46780;48.128;-1.704;2023-01-10T07:23:09;8.38;;;2.20;;
60908;SDS011;46780;48.128;-1.704;2023-01-10T07:25:36;9.18;;;2.10;;
60908;SDS011;46780;48.128;-1.704;2023-01-10T07:28:03;11.23;;;1.90;;
60908;SDS011;46780;48.128;-1.704;2023-01-10T07:30:30;5.95;;;1.83;;
60908;SDS011;46780;48.128;-1.704;2023-01-10T07:32:58;6.10;;;1.85;;
60908;SDS011;46780;48.128;-1.704;2023-01-10T07:35:24;6.05;;;1.77;;
60908;SDS011;46780;48.128;-1.704;2023-01-10T07:37:51;5.25;;;1.80;;
60908;SDS011;46780;48.128;-1.704;2023-01-10T07:40:17;6.63;;;1.77;;
60908;SDS011;46780;48.128;-1.704;2023-01-10T07:42:44;4.82;;;1.40;;
60908;SDS011;46780;48.128;-1.704;2023-01-10T07:45:10;3.97;;;1.60;;
60908;SDS011;46780;48.128;-1.704;2023-01-10T07:47:37;3.28;;;1.25;;
60908;SDS011;46780;48.128;-1.704;2023-01-10T07:50:05;5.15;;;1.50;;
60908;SDS011;46780;48.128;-1.704;2023-01-10T07:52:32;3.85;;;1.50;;
60908;SDS011;46780;48.128;-1.704;2023-01-10T07:54:59;4.03;;;1.63;;
60908;SDS011;46780;48.128;-1.704;2023-01-10T07:57:25;4.13;;;1.75;;
60908;SDS011;46780;48.128;-1.704;2023-01-10T07:59:52;4.60;;;1.85;;
60908;SDS011;46780;48.128;-1.704;2023-01-10T08:02:18;4.68;;;1.90;;
60908;SDS011;46780;48.128;-1.704;2023-01-10T08:04:44;3.85;;;1.70;;
60908;SDS011;46780;48.128;-1.704;2023-01-10T08:07:12;5.75;;;1.70;;
60908;SDS011;46780;48.128;-1.704;2023-01-10T08:09:39;4.45;;;1.88;;
60908;SDS011;46780;48.128;-1.704;2023-01-10T08:12:05;5.13;;;1.77;;
60908;SDS011;46780;48.128;-1.704;2023-01-10T08:14:32;5.70;;;2.00;;
60908;SDS011;46780;48.128;-1.704;2023-01-10T08:17:01;5.65;;;1.80;;
60908;SDS011;46780;48.128;-1.704;2023-01-10T08:19:29;4.95;;;1.80;;
60908;SDS011;46780;48.128;-1.704;2023-01-10T08:21:56;6.43;;;1.90;;
60908;SDS011;46780;48.128;-1.704;2023-01-10T08:24:23;4.50;;;1.90;;
60908;SDS011;46780;48.128;-1.704;2023-01-10T08:26:50;3.70;;;1.67;;
60908;SDS011;46780;48.128;-1.704;2023-01-10T08:29:16;5.05;;;1.83;;
60908;SDS011;46780;48.128;-1.704;2023-01-10T08:31:43;4.70;;;1.75;;
60908;SDS011;46780;48.128;-1.704;2023-01-10T08:34:11;5.22;;;1.90;;
60908;SDS011;46780;48.128;-1.704;2023-01-10T08:36:38;4.57;;;1.80;;
60908;SDS011;46780;48.128;-1.704;2023-01-10T08:39:04;4.25;;;1.98;;
60908;SDS011;46780;48.128;-1.704;2023-01-10T08:41:32;6.13;;;2.20;;
60908;SDS011;46780;48.128;-1.704;2023-01-10T08:43:59;5.90;;;1.90;;
60908;SDS011;46780;48.128;-1.704;2023-01-10T08:46:25;8.90;;;2.03;;
60908;SDS011;46780;48.128;-1.704;2023-01-10T08:48:52;9.20;;;2.17;;
60908;SDS011;46780;48.128;-1.704;2023-01-10T08:51:18;15.23;;;2.40;;
60908;SDS011;46780;48.128;-1.704;2023-01-10T08:53:45;7.30;;;2.40;;
60908;SDS011;46780;48.128;-1.704;2023-01-10T08:56:11;9.38;;;2.40;;
60908;SDS011;46780;48.128;-1.704;2023-01-10T08:58:39;11.20;;;2.40;;
60908;SDS011;46780;48.128;-1.704;2023-01-10T09:01:06;12.18;;;2.70;;
60908;SDS011;46780;48.128;-1.704;2023-01-10T09:03:33;21.75;;;3.50;;
60908;SDS011;46780;48.128;-1.704;2023-01-10T09:06:00;16.23;;;3.15;;
60908;SDS011;46780;48.128;-1.704;2023-01-10T09:08:27;12.25;;;2.58;;
60908;SDS011;46780;48.128;-1.704;2023-01-10T09:10:53;16.20;;;3.08;;
60908;SDS011;46780;48.128;-1.704;2023-01-10T09:13:22;15.27;;;3.00;;
60908;SDS011;46780;48.128;-1.704;2023-01-10T09:15:50;13.88;;;3.25;;
60908;SDS011;46780;48.128;-1.704;2023-01-10T09:18:17;20.33;;;3.50;;
60908;SDS011;46780;48.128;-1.704;2023-01-10T09:20:44;11.20;;;2.90;;
60908;SDS011;46780;48.128;-1.704;2023-01-10T09:23:11;13.23;;;2.95;;
60908;SDS011;46780;48.128;-1.704;2023-01-10T09:25:39;15.98;;;2.80;;
60908;SDS011;46780;48.128;-1.704;2023-01-10T09:28:06;17.45;;;3.00;;
60908;SDS011;46780;48.128;-1.704;2023-01-10T09:30:32;13.05;;;2.65;;
60908;SDS011;46780;48.128;-1.704;2023-01-10T09:33:01;15.88;;;3.03;;
60908;SDS011;46780;48.128;-1.704;2023-01-10T09:35:29;13.80;;;3.33;;
60908;SDS011;46780;48.128;-1.704;2023-01-10T09:37:57;16.02;;;3.00;;
60908;SDS011;46780;48.128;-1.704;2023-01-10T09:40:29;15.88;;;2.92;;
60908;SDS011;46780;48.128;-1.704;2023-01-10T09:43:07;18.60;;;3.20;;
60908;SDS011;46780;48.128;-1.704;2023-01-10T09:45:42;19.20;;;3.00;;
60908;SDS011;46780;48.128;-1.704;2023-01-10T09:48:22;14.10;;;3.22;;
60908;SDS011;46780;48.128;-1.704;2023-01-10T09:50:56;17.55;;;3.03;;
60908;SDS011;46780;48.128;-1.704;2023-01-10T09:53:31;14.48;;;2.83;;
60908;SDS011;46780;48.128;-1.704;2023-01-10T09:56:01;29.13;;;4.17;;
60908;SDS011;46780;48.128;-1.704;2023-01-10T09:58:28;14.52;;;2.78;;
60908;SDS011;46780;48.128;-1.704;2023-01-10T10:00:59;18.80;;;3.25;;
60908;SDS011;46780;48.128;-1.704;2023-01-10T10:03:32;20.98;;;3.63;;
60908;SDS011;46780;48.128;-1.704;2023-01-10T10:06:07;16.70;;;3.33;;
60908;SDS011;46780;48.128;-1.704;2023-01-10T10:08:36;16.90;;;3.03;;
60908;SDS011;46780;48.128;-1.704;2023-01-10T10:11:06;31.85;;;3.92;;
60908;SDS011;46780;48.128;-1.704;2023-01-10T10:13:47;20.17;;;3.22;;
60908;SDS011;46780;48.128;-1.704;2023-01-10T10:16:26;25.67;;;3.50;;
60908;SDS011;46780;48.128;-1.704;2023-01-10T10:19:04;19.63;;;4.05;;
60908;SDS011;46780;48.128;-1.704;2023-01-10T10:21:43;22.05;;;3.75;;
60908;SDS011;46780;48.128;-1.704;2023-01-10T10:24:24;24.60;;;3.90;;
60908;SDS011;46780;48.128;-1.704;2023-01-10T10:27:02;31.48;;;3.78;;
60908;SDS011;46780;48.128;-1.704;2023-01-10T10:32:43;28.65;;;3.60;;
60908;SDS011;46780;48.128;-1.704;2023-01-10T10:35:24;23.40;;;3.17;;
60908;SDS011;46780;48.128;-1.704;2023-01-10T10:37:55;37.50;;;3.90;;
60908;SDS011;46780;48.128;-1.704;2023-01-10T10:40:27;27.80;;;3.63;;
60908;SDS011;46780;48.128;-1.704;2023-01-10T10:45:25;25.00;;;3.38;;
60908;SDS011;46780;48.128;-1.704;2023-01-10T10:48:02;26.40;;;3.60;;
60908;SDS011;46780;48.128;-1.704;2023-01-10T10:50:39;24.65;;;3.20;;
60908;SDS011;46780;48.128;-1.704;2023-01-10T10:53:15;31.77;;;4.22;;
60908;SDS011;46780;48.128;-1.704;2023-01-10T10:55:41;26.55;;;4.03;;
60908;SDS011;46780;48.128;-1.704;2023-01-10T10:58:08;28.48;;;3.60;;
60908;SDS011;46780;48.128;-1.704;2023-01-10T11:00:37;24.77;;;3.58;;
60908;SDS011;46780;48.128;-1.704;2023-01-10T11:03:09;33.10;;;4.22;;
60908;SDS011;46780;48.128;-1.704;2023-01-10T11:05:45;26.15;;;3.85;;
60908;SDS011;46780;48.128;-1.704;2023-01-10T11:08:13;36.47;;;3.85;;
60908;SDS011;46780;48.128;-1.704;2023-01-10T11:10:43;31.90;;;4.05;;
60908;SDS011;46780;48.128;-1.704;2023-01-10T11:13:16;29.77;;;3.92;;
60908;SDS011;46780;48.128;-1.704;2023-01-10T11:15:47;31.02;;;4.68;;
60908;SDS011;46780;48.128;-1.704;2023-01-10T11:18:16;31.90;;;4.15;;
60908;SDS011;46780;48.128;-1.704;2023-01-10T11:20:51;27.83;;;4.03;;
60908;SDS011;46780;48.128;-1.704;2023-01-10T11:23:21;34.20;;;4.13;;
60908;SDS011;46780;48.128;-1.704;2023-01-10T11:25:49;28.30;;;3.80;;
60908;SDS011;46780;48.128;-1.704;2023-01-10T11:28:16;27.58;;;4.32;;
60908;SDS011;46780;48.128;-1.704;2023-01-10T11:30:45;21.63;;;3.50;;
60908;SDS011;46780;48.128;-1.704;2023-01-10T11:33:16;36.47;;;4.80;;
60908;SDS011;46780;48.128;-1.704;2023-01-10T11:35:56;29.73;;;3.70;;
60908;SDS011;46780;48.128;-1.704;2023-01-10T11:38:25;23.35;;;3.55;;
60908;SDS011;46780;48.128;-1.704;2023-01-10T11:40:54;31.45;;;4.78;;
60908;SDS011;46780;48.128;-1.704;2023-01-10T11:43:23;30.30;;;4.00;;
60908;SDS011;46780;48.128;-1.704;2023-01-10T11:45:52;23.17;;;3.97;;
60908;SDS011;46780;48.128;-1.704;2023-01-10T11:48:20;27.63;;;3.85;;
60908;SDS011;46780;48.128;-1.704;2023-01-10T11:50:49;28.00;;;4.05;;
60908;SDS011;46780;48.128;-1.704;2023-01-10T11:53:32;28.02;;;3.80;;
60908;SDS011;46780;48.128;-1.704;2023-01-10T11:56:03;29.23;;;3.97;;
60908;SDS011;46780;48.128;-1.704;2023-01-10T11:58:31;25.58;;;3.88;;
60908;SDS011;46780;48.128;-1.704;2023-01-10T12:01:00;28.20;;;4.35;;
60908;SDS011;46780;48.128;-1.704;2023-01-10T12:03:27;30.45;;;4.10;;
60908;SDS011;46780;48.128;-1.704;2023-01-10T12:05:57;28.13;;;4.13;;
60908;SDS011;46780;48.128;-1.704;2023-01-10T12:08:27;29.75;;;4.35;;
60908;SDS011;46780;48.128;-1.704;2023-01-10T12:11:00;28.05;;;4.28;;
60908;SDS011;46780;48.128;-1.704;2023-01-10T12:13:29;23.90;;;4.30;;
60908;SDS011;46780;48.128;-1.704;2023-01-10T12:16:14;33.88;;;4.10;;
60908;SDS011;46780;48.128;-1.704;2023-01-10T12:18:45;26.98;;;4.20;;
60908;SDS011;46780;48.128;-1.704;2023-01-10T12:21:13;31.75;;;4.35;;
60908;SDS011;46780;48.128;-1.704;2023-01-10T12:23:42;27.30;;;3.88;;
60908;SDS011;46780;48.128;-1.704;2023-01-10T12:26:13;24.30;;;4.18;;
60908;SDS011;46780;48.128;-1.704;2023-01-10T12:28:41;28.90;;;4.68;;
60908;SDS011;46780;48.128;-1.704;2023-01-10T12:31:12;30.13;;;3.90;;
60908;SDS011;46780;48.128;-1.704;2023-01-10T12:33:41;34.55;;;4.85;;
60908;SDS011;46780;48.128;-1.704;2023-01-10T12:36:12;31.58;;;4.40;;
60908;SDS011;46780;48.128;-1.704;2023-01-10T12:38:52;31.73;;;4.50;;
60908;SDS011;46780;48.128;-1.704;2023-01-10T12:41:29;34.78;;;5.15;;
60908;SDS011;46780;48.128;-1.704;2023-01-10T12:44:04;33.40;;;4.88;;
60908;SDS011;46780;48.128;-1.704;2023-01-10T12:46:42;29.02;;;4.43;;
60908;SDS011;46780;48.128;-1.704;2023-01-10T12:49:12;28.27;;;4.28;;
60908;SDS011;46780;48.128;-1.704;2023-01-10T12:51:44;37.40;;;4.68;;
60908;SDS011;46780;48.128;-1.704;2023-01-10T12:54:14;34.83;;;4.45;;
60908;SDS011;46780;48.128;-1.704;2023-01-10T12:56:45;35.92;;;4.40;;
60908;SDS011;46780;48.128;-1.704;2023-01-10T12:59:13;36.35;;;4.82;;
60908;SDS011;46780;48.128;-1.704;2023-01-10T13:01:45;32.63;;;4.53;;
60908;SDS011;46780;48.128;-1.704;2023-01-10T13:04:17;35.42;;;4.15;;
60908;SDS011;46780;48.128;-1.704;2023-01-10T13:09:15;34.35;;;4.22;;
60908;SDS011;46780;48.128;-1.704;2023-01-10T13:11:44;26.40;;;3.35;;
60908;SDS011;46780;48.128;-1.704;2023-01-10T13:14:18;31.30;;;4.45;;
60908;SDS011;46780;48.128;-1.704;2023-01-10T13:16:51;35.47;;;4.18;;
60908;SDS011;46780;48.128;-1.704;2023-01-10T13:19:23;31.60;;;4.25;;
60908;SDS011;46780;48.128;-1.704;2023-01-10T13:21:55;33.33;;;4.28;;
60908;SDS011;46780;48.128;-1.704;2023-01-10T13:24:44;32.97;;;4.57;;
60908;SDS011;46780;48.128;-1.704;2023-01-10T13:27:28;25.73;;;3.90;;
60908;SDS011;46780;48.128;-1.704;2023-01-10T13:29:57;31.88;;;4.75;;
60908;SDS011;46780;48.128;-1.704;2023-01-10T13:32:24;26.27;;;3.58;;
60908;SDS011;46780;48.128;-1.704;2023-01-10T13:34:53;29.40;;;3.80;;
60908;SDS011;46780;48.128;-1.704;2023-01-10T13:37:31;20.88;;;3.67;;
60908;SDS011;46780;48.128;-1.704;2023-01-10T13:40:01;27.52;;;4.20;;
60908;SDS011;46780;48.128;-1.704;2023-01-10T13:42:30;27.35;;;3.50;;
60908;SDS011;46780;48.128;-1.704;2023-01-10T13:45:14;29.40;;;4.40;;
60908;SDS011;46780;48.128;-1.704;2023-01-10T13:48:00;23.75;;;3.60;;
60908;SDS011;46780;48.128;-1.704;2023-01-10T13:50:51;29.30;;;3.78;;
60908;SDS011;46780;48.128;-1.704;2023-01-10T13:56:28;29.40;;;3.80;;
60908;SDS011;46780;48.128;-1.704;2023-01-10T13:59:01;24.65;;;3.40;;
60908;SDS011;46780;48.128;-1.704;2023-01-10T14:01:30;31.65;;;4.07;;
60908;SDS011;46780;48.128;-1.704;2023-01-10T14:04:01;24.85;;;3.30;;
60908;SDS011;46780;48.128;-1.704;2023-01-10T14:06:31;24.27;;;4.07;;
60908;SDS011;46780;48.128;-1.704;2023-01-10T14:09:01;25.98;;;3.47;;
60908;SDS011;46780;48.128;-1.704;2023-01-10T14:11:32;19.45;;;3.70;;
60908;SDS011;46780;48.128;-1.704;2023-01-10T14:14:17;25.58;;;3.10;;
60908;SDS011;46780;48.128;-1.704;2023-01-10T14:16:47;16.50;;;2.85;;
60908;SDS011;46780;48.128;-1.704;2023-01-10T14:19:20;19.77;;;2.90;;
60908;SDS011;46780;48.128;-1.704;2023-01-10T14:21:51;19.90;;;2.97;;
60908;SDS011;46780;48.128;-1.704;2023-01-10T14:24:21;16.33;;;2.22;;
60908;SDS011;46780;48.128;-1.704;2023-01-10T14:26:50;17.10;;;2.72;;
60908;SDS011;46780;48.128;-1.704;2023-01-10T14:29:20;16.52;;;2.75;;
60908;SDS011;46780;48.128;-1.704;2023-01-10T14:31:47;20.77;;;2.72;;
60908;SDS011;46780;48.128;-1.704;2023-01-10T14:34:18;19.75;;;3.40;;
60908;SDS011;46780;48.128;-1.704;2023-01-10T14:36:48;20.48;;;2.65;;
60908;SDS011;46780;48.128;-1.704;2023-01-10T14:39:20;19.73;;;2.70;;
60908;SDS011;46780;48.128;-1.704;2023-01-10T14:41:48;19.60;;;3.00;;
60908;SDS011;46780;48.128;-1.704;2023-01-10T14:44:17;17.77;;;2.58;;
60908;SDS011;46780;48.128;-1.704;2023-01-10T14:46:49;18.70;;;2.70;;
60908;SDS011;46780;48.128;-1.704;2023-01-10T14:49:24;15.80;;;2.55;;
60908;SDS011;46780;48.128;-1.704;2023-01-10T14:51:52;16.08;;;2.60;;
60908;SDS011;46780;48.128;-1.704;2023-01-10T14:54:19;14.80;;;1.88;;